Time;durP1;ratioP1;P1;durP2;ratioP2;P2;SDS_P1;SDS_P2;PMS_P1;PMS_P2;Temp;Humidity;BMP_temperature;BMP_pressure;BME280_temperature;BME280_humidity;BME280_pressure;Samples;Min_cycle;Max_cycle;Signal;HPM_P1;HPM_P2
2022/11/18 00:00:49;;;;;;;54.20;30.58;;;2.80;73.50;;;;;;6082890;23;114264;-83
2022/11/18 00:03:16;;;;;;;62.70;33.55;;;2.80;73.70;;;;;;6084097;23;114268;-83
2022/11/18 00:05:52;;;;;;;61.83;35.03;;;2.90;73.60;;;;;;6082673;23;114920;-82
2022/11/18 00:08:21;;;;;;;58.78;33.58;;;3.00;73.60;;;;;;6081597;23;114725;-83
2022/11/18 00:10:48;;;;;;;66.53;34.55;;;3.10;73.50;;;;;;6084152;23;114026;-82
2022/11/18 00:16:05;;;;;;;64.75;34.17;;;3.20;73.20;;;;;;6081133;23;114898;-83
2022/11/18 00:18:32;;;;;;;62.40;32.35;;;3.20;73.10;;;;;;6081103;23;115253;-83
2022/11/18 00:21:03;;;;;;;63.35;33.85;;;3.20;73.00;;;;;;6083561;23;114377;-83
2022/11/18 00:23:30;;;;;;;64.32;34.28;;;3.30;72.90;;;;;;6107326;23;114220;-83
2022/11/18 00:26:02;;;;;;;65.40;33.40;;;3.30;72.90;;;;;;6082917;23;114744;-83
2022/11/18 00:28:30;;;;;;;60.90;32.20;;;3.30;72.80;;;;;;6057529;23;114794;-83
2022/11/18 00:31:01;;;;;;;69.32;33.63;;;3.30;72.90;;;;;;6082608;23;114531;-83
2022/11/18 00:33:28;;;;;;;64.03;35.08;;;3.30;72.90;;;;;;6082509;23;114121;-83
2022/11/18 00:35:55;;;;;;;61.92;32.90;;;3.30;72.90;;;;;;6106234;23;115537;-82
2022/11/18 00:38:23;;;;;;;61.80;33.25;;;3.40;72.90;;;;;;6081632;23;114582;-82
2022/11/18 00:41:01;;;;;;;59.42;32.55;;;3.40;72.90;;;;;;6082058;23;114123;-82
2022/11/18 00:43:28;;;;;;;56.42;31.38;;;3.40;72.80;;;;;;6082421;23;114321;-83
2022/11/18 00:45:55;;;;;;;56.13;30.33;;;3.40;72.70;;;;;;6080940;23;114747;-83
2022/11/18 00:48:23;;;;;;;58.30;30.05;;;3.40;72.70;;;;;;6081203;23;114727;-83
2022/11/18 00:50:51;;;;;;;55.70;31.23;;;3.40;72.70;;;;;;6084096;23;114668;-82
2022/11/18 00:53:18;;;;;;;58.92;32.05;;;3.40;72.80;;;;;;6107077;23;114434;-82
2022/11/18 00:55:50;;;;;;;59.63;31.38;;;3.40;72.70;;;;;;6082367;23;114807;-82
2022/11/18 00:58:17;;;;;;;57.28;29.23;;;3.40;72.70;;;;;;6081016;23;116950;-82
2022/11/18 01:00:47;;;;;;;61.10;30.45;;;3.40;72.70;;;;;;6082348;23;114275;-83
2022/11/18 01:03:14;;;;;;;53.75;29.73;;;3.40;72.60;;;;;;6058317;23;114346;-82
2022/11/18 01:05:41;;;;;;;53.80;28.10;;;3.40;72.80;;;;;;6081200;23;115309;-83
2022/11/18 01:08:09;;;;;;;57.33;30.35;;;3.30;72.70;;;;;;6081301;23;117712;-83
2022/11/18 01:10:36;;;;;;;59.40;31.17;;;3.30;72.60;;;;;;6083418;23;114251;-83
2022/11/18 01:13:18;;;;;;;52.75;29.02;;;3.30;72.50;;;;;;6082184;23;114372;-83
2022/11/18 01:15:56;;;;;;;51.60;28.52;;;3.30;72.70;;;;;;6059332;23;115198;-83
2022/11/18 01:18:25;;;;;;;50.70;27.75;;;3.30;72.80;;;;;;6082488;23;114532;-84
2022/11/18 01:20:52;;;;;;;57.90;28.10;;;3.30;72.70;;;;;;6107408;23;115577;-84
2022/11/18 01:23:19;;;;;;;52.42;26.08;;;3.20;72.40;;;;;;6088595;23;114453;-84
2022/11/18 01:25:47;;;;;;;58.22;29.77;;;3.00;72.80;;;;;;6085297;23;114987;-84
2022/11/18 01:28:15;;;;;;;64.03;31.35;;;3.00;72.90;;;;;;6084501;23;114578;-85
2022/11/18 01:30:50;;;;;;;54.72;27.58;;;2.90;73.10;;;;;;6084680;23;114143;-85
2022/11/18 01:33:17;;;;;;;60.95;29.92;;;2.70;73.20;;;;;;6087136;23;114273;-84
2022/11/18 01:35:44;;;;;;;58.00;29.35;;;2.70;73.40;;;;;;6084305;23;114745;-85
2022/11/18 01:38:15;;;;;;;57.15;29.73;;;2.70;73.60;;;;;;6083928;23;114625;-84
2022/11/18 01:40:41;;;;;;;59.83;29.40;;;2.70;73.70;;;;;;6083710;23;114866;-84
2022/11/18 01:43:13;;;;;;;60.08;28.25;;;2.70;73.90;;;;;;6083856;23;114328;-85
2022/11/18 01:45:41;;;;;;;58.08;29.70;;;2.80;73.80;;;;;;6081051;23;114811;-84
2022/11/18 01:48:14;;;;;;;62.78;31.38;;;2.80;73.60;;;;;;6082279;23;114290;-84
2022/11/18 01:50:44;;;;;;;58.60;30.20;;;2.80;73.50;;;;;;6084154;23;114118;-84
2022/11/18 01:53:13;;;;;;;56.88;29.58;;;2.80;73.80;;;;;;6083419;23;114341;-83
2022/11/18 01:55:42;;;;;;;69.20;33.95;;;2.80;74.00;;;;;;6081691;23;116981;-84
2022/11/18 01:58:24;;;;;;;60.78;29.02;;;2.80;73.70;;;;;;6083156;23;114825;-83
2022/11/18 02:00:51;;;;;;;55.25;27.73;;;2.70;73.60;;;;;;6084190;23;114253;-83
2022/11/18 02:03:18;;;;;;;64.00;30.70;;;2.70;73.90;;;;;;6068097;23;114004;-84
2022/11/18 02:05:49;;;;;;;67.38;30.48;;;2.70;74.10;;;;;;6082989;23;115456;-84
2022/11/18 02:08:16;;;;;;;62.08;32.17;;;2.70;74.10;;;;;;6082939;23;114856;-83
2022/11/18 02:10:43;;;;;;;60.38;30.38;;;2.70;74.10;;;;;;6083382;23;114255;-84
2022/11/18 02:13:10;;;;;;;60.03;29.30;;;2.80;74.10;;;;;;6082718;23;114478;-84
2022/11/18 02:16:00;;;;;;;57.58;29.38;;;2.90;73.80;;;;;;6056929;23;118233;-82
2022/11/18 02:18:34;;;;;;;63.85;29.92;;;2.90;73.90;;;;;;6081301;23;115328;-82
2022/11/18 02:21:40;;;;;;;59.88;30.48;;;2.90;73.90;;;;;;6057871;23;114247;-83
2022/11/18 02:24:26;;;;;;;60.08;27.90;;;3.00;73.70;;;;;;6083619;23;114351;-82
2022/11/18 02:27:16;;;;;;;58.47;29.35;;;3.00;73.80;;;;;;6055932;23;118441;-83
2022/11/18 02:29:51;;;;;;;55.78;28.13;;;2.90;73.70;;;;;;6066137;23;114275;-83
2022/11/18 02:32:18;;;;;;;;;;;2.90;73.70;;;;;;6059520;23;114014;-83
2022/11/18 02:35:00;;;;;;;59.20;29.20;;;2.80;73.60;;;;;;6081987;23;114182;-83
2022/11/18 02:37:33;;;;;;;58.60;29.42;;;2.80;73.90;;;;;;6056351;23;115598;-82
2022/11/18 02:40:09;;;;;;;64.80;29.30;;;2.90;73.90;;;;;;6081105;23;114988;-83
2022/11/18 02:42:36;;;;;;;61.58;30.10;;;2.90;73.90;;;;;;6081328;23;114204;-83
2022/11/18 02:45:09;;;;;;;63.92;29.17;;;3.00;73.60;;;;;;6081854;23;114487;-83
2022/11/18 02:47:36;;;;;;;60.88;27.75;;;3.00;73.60;;;;;;6080667;23;115826;-82
2022/11/18 02:50:07;;;;;;;63.97;30.63;;;3.00;73.60;;;;;;6080644;23;114545;-83
2022/11/18 02:52:34;;;;;;;53.95;27.10;;;3.10;73.70;;;;;;6081368;23;114209;-83
2022/11/18 02:55:01;;;;;;;57.40;29.02;;;3.20;73.50;;;;;;6057681;23;114263;-83
2022/11/18 02:57:29;;;;;;;63.45;30.33;;;3.10;73.60;;;;;;6080995;23;114874;-83
2022/11/18 02:59:56;;;;;;;69.53;33.58;;;3.20;73.60;;;;;;6081225;23;114671;-84
2022/11/18 03:02:23;;;;;;;67.57;31.10;;;3.20;73.40;;;;;;6083103;23;114057;-83
2022/11/18 03:04:53;;;;;;;66.25;30.75;;;3.20;73.20;;;;;;6057098;23;114100;-82
2022/11/18 03:07:29;;;;;;;69.68;33.22;;;3.30;73.10;;;;;;6080478;23;114770;-83
2022/11/18 03:09:56;;;;;;;73.85;34.15;;;3.30;73.00;;;;;;6080759;23;115182;-83
2022/11/18 03:12:35;;;;;;;69.57;31.40;;;3.30;72.90;;;;;;6057979;23;114350;-83
2022/11/18 03:15:21;;;;;;;75.72;32.35;;;3.30;73.00;;;;;;6082168;23;114995;-83
2022/11/18 03:18:13;;;;;;;68.00;29.48;;;3.20;72.80;;;;;;6081790;23;115233;-83
2022/11/18 03:21:12;;;;;;;71.82;30.38;;;3.20;72.80;;;;;;6082555;23;114634;-83
2022/11/18 03:23:41;;;;;;;58.33;28.30;;;3.00;72.80;;;;;;6084542;23;114092;-83
2022/11/18 03:26:11;;;;;;;60.95;30.05;;;2.80;73.10;;;;;;6057998;23;114758;-83
2022/11/18 03:28:55;;;;;;;63.88;29.92;;;2.70;73.20;;;;;;6081022;23;115067;-83
2022/11/18 03:31:24;;;;;;;62.53;28.83;;;2.70;73.60;;;;;;6082112;23;114662;-83
2022/11/18 03:33:57;;;;;;;66.90;29.40;;;2.60;73.70;;;;;;6082477;23;114236;-85
2022/11/18 03:36:27;;;;;;;50.50;25.00;;;2.60;73.90;;;;;;6082811;23;114406;-82
2022/11/18 03:38:56;;;;;;;52.80;24.40;;;2.60;74.00;;;;;;6081058;23;114904;-83
2022/11/18 03:41:23;;;;;;;56.33;26.27;;;2.60;74.00;;;;;;6081090;23;114893;-83
2022/11/18 03:43:55;;;;;;;59.45;27.30;;;2.50;73.80;;;;;;6081814;23;114294;-83
2022/11/18 03:46:35;;;;;;;;;;;2.50;73.80;;;;;;6083222;23;114378;-82
2022/11/18 03:49:02;;;;;;;51.38;24.35;;;2.30;73.70;;;;;;6081576;23;115917;-83
2022/11/18 03:51:36;;;;;;;52.88;25.13;;;2.20;74.10;;;;;;6081368;23;114590;-83
2022/11/18 03:54:07;;;;;;;53.30;26.03;;;2.20;74.30;;;;;;6082505;23;114323;-83
2022/11/18 03:56:37;;;;;;;54.08;25.10;;;2.20;74.30;;;;;;6082609;23;114113;-84
2022/11/18 03:59:09;;;;;;;53.45;24.33;;;2.20;74.30;;;;;;6081175;23;115227;-83
2022/11/18 04:01:40;;;;;;;56.33;25.98;;;2.20;74.40;;;;;;6057844;23;115877;-83
2022/11/18 04:04:07;;;;;;;50.35;22.75;;;2.10;74.50;;;;;;6082436;23;114204;-83
2022/11/18 04:06:48;;;;;;;52.03;24.05;;;2.20;74.60;;;;;;6082380;23;114332;-83
2022/11/18 04:09:23;;;;;;;52.40;24.52;;;2.20;74.80;;;;;;6080674;23;115449;-83
2022/11/18 04:12:02;;;;;;;52.10;24.35;;;2.30;74.80;;;;;;6081067;23;115278;-83
2022/11/18 04:14:39;;;;;;;58.38;26.05;;;2.40;74.70;;;;;;6084477;23;114365;-83
2022/11/18 04:17:18;;;;;;;50.70;24.00;;;2.30;74.50;;;;;;6081795;23;114444;-83
2022/11/18 04:19:45;;;;;;;46.92;24.13;;;2.30;74.30;;;;;;6081013;23;114904;-83
2022/11/18 04:22:12;;;;;;;52.80;24.08;;;2.20;74.40;;;;;;6056660;23;115206;-85
2022/11/18 04:24:40;;;;;;;46.67;21.08;;;2.20;74.40;;;;;;6057920;23;114425;-84
2022/11/18 04:27:07;;;;;;;39.70;19.73;;;2.20;74.50;;;;;;6057923;23;114400;-84
2022/11/18 04:29:34;;;;;;;40.63;20.63;;;2.20;74.60;;;;;;6082090;23;114821;-83
2022/11/18 04:32:01;;;;;;;46.42;20.42;;;2.20;74.60;;;;;;6081028;23;114764;-83
2022/11/18 04:34:28;;;;;;;46.78;21.92;;;2.20;74.80;;;;;;6084636;23;114093;-82
2022/11/18 04:36:55;;;;;;;42.83;20.67;;;2.20;74.60;;;;;;6085486;23;114337;-82
2022/11/18 04:39:22;;;;;;;40.38;20.40;;;2.20;74.60;;;;;;6081643;23;115228;-83
2022/11/18 04:41:55;;;;;;;36.72;18.48;;;2.30;74.70;;;;;;6082351;23;114774;-83
2022/11/18 04:44:25;;;;;;;37.17;18.92;;;2.30;74.80;;;;;;6082243;23;114137;-83
2022/11/18 04:46:53;;;;;;;37.10;18.52;;;2.40;74.60;;;;;;6083539;23;114568;-83
2022/11/18 04:49:21;;;;;;;36.58;19.48;;;2.40;74.30;;;;;;6081403;23;114794;-83
2022/11/18 04:51:48;;;;;;;34.97;18.80;;;2.40;74.40;;;;;;6082654;23;114695;-82
2022/11/18 04:54:15;;;;;;;37.15;19.17;;;2.30;74.60;;;;;;6083388;23;114506;-83
2022/11/18 04:56:42;;;;;;;33.20;16.75;;;2.40;74.40;;;;;;6085840;23;114270;-83
2022/11/18 04:59:17;;;;;;;34.22;19.00;;;2.30;74.20;;;;;;6059584;23;114926;-84
2022/11/18 05:01:45;;;;;;;37.30;18.90;;;2.30;74.50;;;;;;6084509;23;114512;-83
2022/11/18 05:04:13;;;;;;;37.50;19.25;;;2.40;74.30;;;;;;6083459;23;114349;-84
2022/11/18 05:06:40;;;;;;;35.55;18.52;;;2.40;74.50;;;;;;6083349;23;114410;-84
2022/11/18 05:09:08;;;;;;;35.97;19.13;;;2.50;74.70;;;;;;6107843;23;114866;-83
2022/11/18 05:14:20;;;;;;;36.15;19.88;;;2.50;74.60;;;;;;6085422;23;114371;-83
2022/11/18 05:16:47;;;;;;;34.00;18.60;;;2.50;74.50;;;;;;6087714;23;114163;-84
2022/11/18 05:19:14;;;;;;;42.92;20.77;;;2.50;74.50;;;;;;6088747;23;117109;-85
2022/11/18 05:21:42;;;;;;;39.85;19.33;;;2.50;74.50;;;;;;6063709;23;115500;-85
2022/11/18 05:24:09;;;;;;;36.00;17.85;;;2.50;74.40;;;;;;6089015;23;114148;-84
2022/11/18 05:26:36;;;;;;;36.95;19.35;;;2.50;74.80;;;;;;6092098;23;114310;-85
2022/11/18 05:29:03;;;;;;;35.30;18.27;;;2.60;74.90;;;;;;6064085;23;115942;-86
2022/11/18 05:31:30;;;;;;;34.28;18.10;;;2.60;74.50;;;;;;6086833;23;115222;-86
2022/11/18 05:33:57;;;;;;;32.17;16.80;;;2.70;74.20;;;;;;6064893;23;114326;-85
2022/11/18 05:36:24;;;;;;;30.35;16.42;;;2.80;74.00;;;;;;6065852;23;114108;-86
2022/11/18 05:38:51;;;;;;;31.08;17.90;;;2.80;73.90;;;;;;6062628;23;118347;-86
2022/11/18 05:44:04;;;;;;;30.80;18.08;;;2.90;73.90;;;;;;6093308;23;114331;-85
2022/11/18 05:46:34;;;;;;;29.88;15.95;;;2.90;74.00;;;;;;6089573;23;114297;-85
2022/11/18 05:49:01;;;;;;;29.10;15.60;;;2.90;73.50;;;;;;6087655;23;115462;-86
2022/11/18 05:51:28;;;;;;;30.13;16.50;;;2.80;73.00;;;;;;6088235;23;114636;-85
2022/11/18 05:53:55;;;;;;;30.25;15.68;;;2.70;73.30;;;;;;6065940;23;114070;-86
2022/11/18 05:56:27;;;;;;;27.42;15.48;;;2.60;73.40;;;;;;6065585;23;114389;-86
2022/11/18 05:58:55;;;;;;;27.08;13.68;;;2.50;73.20;;;;;;6063688;23;117108;-86
2022/11/18 06:01:25;;;;;;;29.10;15.63;;;2.40;73.40;;;;;;6035661;23;115664;-86
2022/11/18 06:03:52;;;;;;;26.75;14.30;;;2.20;73.80;;;;;;6083400;23;114244;-86
2022/11/18 06:06:21;;;;;;;20.95;12.45;;;2.20;73.80;;;;;;6065320;23;114579;-86
2022/11/18 06:09:00;;;;;;;25.42;14.00;;;2.20;73.60;;;;;;6089091;23;117365;-86
2022/11/18 06:11:36;;;;;;;26.10;14.18;;;2.10;73.70;;;;;;6060483;23;118159;-87
2022/11/18 06:14:06;;;;;;;26.42;13.55;;;2.10;73.90;;;;;;6059714;23;114269;-86
2022/11/18 06:16:33;;;;;;;27.13;14.65;;;2.00;74.10;;;;;;6060875;23;114312;-86
2022/11/18 06:19:06;;;;;;;20.60;12.55;;;2.00;74.30;;;;;;6064095;23;114853;-87
2022/11/18 06:21:33;;;;;;;21.42;11.63;;;2.10;74.10;;;;;;6112239;23;115140;-86
2022/11/18 06:24:01;;;;;;;24.20;13.68;;;2.00;73.90;;;;;;6089322;23;114095;-86
2022/11/18 06:26:30;;;;;;;21.77;12.70;;;1.90;74.10;;;;;;6040829;23;114223;-86
2022/11/18 06:28:57;;;;;;;26.27;14.27;;;1.90;74.10;;;;;;6087896;23;114627;-87
2022/11/18 06:31:24;;;;;;;24.92;14.57;;;1.80;74.10;;;;;;6088688;23;116448;-87
2022/11/18 06:33:51;;;;;;;27.63;14.77;;;1.80;74.20;;;;;;6088838;23;114375;-86
2022/11/18 06:36:36;;;;;;;26.77;14.80;;;1.80;74.20;;;;;;6087260;23;114442;-85
2022/11/18 06:39:04;;;;;;;29.98;16.13;;;1.80;74.30;;;;;;6060094;23;117680;-84
2022/11/18 06:41:31;;;;;;;26.38;14.13;;;1.80;74.40;;;;;;6063099;23;115214;-84
2022/11/18 06:44:00;;;;;;;28.48;15.27;;;1.80;74.20;;;;;;6063968;23;114281;-84
2022/11/18 06:49:33;;;;;;;29.88;14.35;;;1.70;74.10;;;;;;6041751;23;115161;-84
2022/11/18 06:52:00;;;;;;;29.88;15.50;;;1.70;74.10;;;;;;6010210;23;116109;-84
2022/11/18 06:54:28;;;;;;;23.55;14.85;;;1.60;73.90;;;;;;6035882;23;114307;-84
2022/11/18 06:56:56;;;;;;;25.63;14.45;;;1.50;74.10;;;;;;6090228;23;114308;-84
2022/11/18 06:59:23;;;;;;;24.80;15.23;;;1.50;74.00;;;;;;6088333;23;114659;-84
2022/11/18 07:01:52;;;;;;;29.38;14.90;;;1.40;74.10;;;;;;6062886;23;115404;-84
2022/11/18 07:04:19;;;;;;;31.13;17.77;;;1.30;74.20;;;;;;6089430;23;114055;-84
2022/11/18 07:06:46;;;;;;;24.50;14.48;;;1.30;74.50;;;;;;6085449;23;115557;-85
2022/11/18 07:09:13;;;;;;;26.92;14.02;;;1.30;74.50;;;;;;6088635;23;116494;-84
2022/11/18 07:11:41;;;;;;;26.15;14.88;;;1.30;74.70;;;;;;6088886;23;114489;-85
2022/11/18 07:14:09;;;;;;;25.92;15.15;;;1.30;74.80;;;;;;6090228;23;114215;-83
2022/11/18 07:16:37;;;;;;;28.08;16.48;;;1.30;74.90;;;;;;6089569;23;114768;-84
2022/11/18 07:19:12;;;;;;;29.10;16.33;;;1.30;75.10;;;;;;6088700;23;114961;-84
2022/11/18 07:21:39;;;;;;;29.17;15.95;;;1.40;75.30;;;;;;6090520;23;117891;-84
2022/11/18 07:24:07;;;;;;;35.13;18.48;;;1.50;74.90;;;;;;6093529;23;114375;-84
2022/11/18 07:26:35;;;;;;;30.25;16.95;;;1.40;74.70;;;;;;6091677;23;114265;-84
2022/11/18 07:29:02;;;;;;;27.58;15.55;;;1.30;74.50;;;;;;6083514;23;116714;-85
2022/11/18 07:31:30;;;;;;;29.05;16.67;;;1.30;74.50;;;;;;6080963;23;115121;-84
2022/11/18 07:33:57;;;;;;;28.85;14.65;;;1.30;74.50;;;;;;6081202;23;114492;-84
2022/11/18 07:36:26;;;;;;;25.98;14.18;;;1.20;74.30;;;;;;6081488;23;114410;-85
2022/11/18 07:39:01;;;;;;;26.20;15.05;;;1.20;74.40;;;;;;6058294;23;117755;-84
2022/11/18 07:41:28;;;;;;;28.10;14.68;;;1.20;74.70;;;;;;6080259;23;115197;-84
2022/11/18 07:43:57;;;;;;;27.05;14.35;;;1.20;74.60;;;;;;6057453;23;114313;-84
2022/11/18 07:46:29;;;;;;;26.42;13.77;;;1.20;74.60;;;;;;6059389;23;114394;-84
2022/11/18 07:48:57;;;;;;;30.42;16.90;;;1.20;74.60;;;;;;6058795;23;118058;-84
2022/11/18 07:51:26;;;;;;;27.27;14.70;;;1.20;74.20;;;;;;6082969;23;114923;-84
2022/11/18 07:53:53;;;;;;;25.30;13.80;;;1.10;74.30;;;;;;6082831;23;114309;-85
2022/11/18 07:56:21;;;;;;;28.27;15.27;;;1.10;74.50;;;;;;6057892;23;114280;-84
2022/11/18 07:58:54;;;;;;;28.20;15.93;;;1.10;74.50;;;;;;6056169;23;118100;-85
2022/11/18 08:01:22;;;;;;;27.35;15.07;;;1.10;74.40;;;;;;6080186;23;114859;-84
2022/11/18 08:03:50;;;;;;;32.13;15.90;;;1.10;74.40;;;;;;6057110;23;114510;-85
2022/11/18 08:06:19;;;;;;;29.05;16.83;;;1.00;74.40;;;;;;6058667;23;114235;-85
2022/11/18 08:08:48;;;;;;;30.20;16.77;;;1.10;74.70;;;;;;6083373;23;117825;-84
2022/11/18 08:11:20;;;;;;;28.58;15.95;;;1.10;74.40;;;;;;6082865;23;115011;-83
2022/11/18 08:13:50;;;;;;;30.95;17.60;;;1.00;74.20;;;;;;6103097;23;114595;-82
2022/11/18 08:16:19;;;;;;;31.08;18.65;;;1.00;74.30;;;;;;6088913;23;114763;-83
2022/11/18 08:18:46;;;;;;;31.00;16.15;;;1.00;74.50;;;;;;6063431;23;116104;-83
2022/11/18 08:21:14;;;;;;;30.27;16.98;;;1.00;74.30;;;;;;6062878;23;114644;-87
2022/11/18 08:23:42;;;;;;;32.40;17.55;;;1.00;74.70;;;;;;6113028;23;114561;-84
2022/11/18 08:26:12;;;;;;;29.58;16.40;;;1.20;74.90;;;;;;6091820;23;114402;-84
2022/11/18 08:28:41;;;;;;;34.55;17.60;;;1.20;74.70;;;;;;6087185;23;117712;-84
2022/11/18 08:31:20;;;;;;;30.33;15.80;;;1.20;74.50;;;;;;6089170;23;115195;-84
2022/11/18 08:33:48;;;;;;;32.35;17.38;;;1.20;74.20;;;;;;6060834;23;114279;-84
2022/11/18 08:36:17;;;;;;;32.22;16.63;;;1.20;74.20;;;;;;6035110;23;114233;-84
2022/11/18 08:38:45;;;;;;;38.83;19.73;;;1.20;74.00;;;;;;6084423;23;115528;-85
2022/11/18 08:41:20;;;;;;;33.28;17.90;;;1.10;74.30;;;;;;6052027;23;114516;-85
2022/11/18 08:43:47;;;;;;;36.03;18.95;;;1.20;74.30;;;;;;6057053;23;114247;-83
2022/11/18 08:46:14;;;;;;;36.88;17.13;;;1.10;74.10;;;;;;6057827;23;114108;-84
2022/11/18 08:48:43;;;;;;;30.05;17.02;;;1.20;74.20;;;;;;6056731;23;115601;-84
2022/11/18 08:51:10;;;;;;;34.85;17.55;;;1.20;74.10;;;;;;6030704;23;118101;-84
2022/11/18 08:53:38;;;;;;;33.65;18.40;;;1.10;74.30;;;;;;6034802;23;114293;-85
2022/11/18 08:56:05;;;;;;;31.45;16.58;;;1.10;74.00;;;;;;6037012;23;114104;-84
2022/11/18 08:58:32;;;;;;;33.95;17.63;;;1.10;74.00;;;;;;6036173;23;114857;-84
2022/11/18 09:01:06;;;;;;;31.75;15.98;;;1.10;74.00;;;;;;6060110;23;114674;-85
2022/11/18 09:03:33;;;;;;;31.67;17.10;;;1.20;73.90;;;;;;6061288;23;114716;-85
2022/11/18 09:06:06;;;;;;;32.55;17.02;;;1.00;73.70;;;;;;6034855;23;116143;-84
2022/11/18 09:08:33;;;;;;;35.03;17.58;;;1.00;73.90;;;;;;6055278;23;114919;-85
2022/11/18 09:11:07;;;;;;;36.08;18.85;;;1.00;74.20;;;;;;6052692;23;114550;-84
2022/11/18 09:13:36;;;;;;;29.67;16.17;;;1.10;74.40;;;;;;6031855;23;114835;-85
2022/11/18 09:16:24;;;;;;;30.23;15.30;;;1.10;74.30;;;;;;6056190;23;114372;-84
2022/11/18 09:18:55;;;;;;;29.70;15.52;;;1.10;74.20;;;;;;6054435;23;114915;-85
2022/11/18 09:21:22;;;;;;;31.73;16.67;;;1.10;74.00;;;;;;6079813;23;114551;-84
2022/11/18 09:23:50;;;;;;;32.70;17.15;;;1.00;73.80;;;;;;6059855;23;114097;-85
2022/11/18 09:26:19;;;;;;;29.30;16.55;;;0.90;73.70;;;;;;6062175;23;114282;-85
2022/11/18 09:28:47;;;;;;;32.30;17.02;;;0.80;73.80;;;;;;6085751;23;114719;-84
2022/11/18 09:31:15;;;;;;;31.27;16.05;;;0.70;74.00;;;;;;6037158;23;117998;-85
2022/11/18 09:33:43;;;;;;;29.05;16.25;;;0.70;74.00;;;;;;6060112;23;114427;-85
2022/11/18 09:36:21;;;;;;;30.88;16.80;;;0.70;74.10;;;;;;6059372;23;114220;-85
2022/11/18 09:38:50;;;;;;;29.20;16.45;;;0.60;74.70;;;;;;6057854;23;115086;-84
2022/11/18 09:41:45;;;;;;;29.15;16.35;;;0.70;74.90;;;;;;6071557;23;115024;-85
2022/11/18 09:44:18;;;;;;;26.55;15.98;;;0.90;75.00;;;;;;6091091;23;114416;-84
2022/11/18 09:46:58;;;;;;;35.40;17.75;;;0.90;74.50;;;;;;6084252;23;114349;-84
2022/11/18 09:49:27;;;;;;;27.20;14.88;;;0.90;74.40;;;;;;6087297;23;116240;-85
2022/11/18 09:51:54;;;;;;;25.88;14.98;;;0.90;74.00;;;;;;6086613;23;114946;-85
2022/11/18 09:54:23;;;;;;;29.52;16.65;;;0.80;74.10;;;;;;6081875;23;114237;-85
2022/11/18 09:56:51;;;;;;;27.55;14.75;;;0.80;74.30;;;;;;6081690;23;114355;-84
2022/11/18 09:59:23;;;;;;;28.85;16.23;;;0.80;74.20;;;;;;6057173;23;114896;-84
2022/11/18 10:01:52;;;;;;;27.35;15.45;;;0.70;74.30;;;;;;6081298;23;114682;-84
2022/11/18 10:04:20;;;;;;;28.90;15.07;;;0.70;74.40;;;;;;6089661;23;114324;-84
2022/11/18 10:06:48;;;;;;;30.45;16.55;;;0.70;74.20;;;;;;6060563;23;115295;-85
2022/11/18 10:09:33;;;;;;;31.02;17.35;;;0.70;74.40;;;;;;6059499;23;118222;-85
2022/11/18 10:12:21;;;;;;;27.02;15.07;;;0.70;74.80;;;;;;6085447;23;115106;-85
2022/11/18 10:15:07;;;;;;;29.48;17.55;;;0.80;74.50;;;;;;6082958;23;114402;-85
2022/11/18 10:17:47;;;;;;;31.00;16.30;;;0.70;74.50;;;;;;6082928;23;114530;-85
2022/11/18 10:20:28;;;;;;;31.23;17.45;;;0.80;74.60;;;;;;6082257;23;117902;-87
2022/11/18 10:23:28;;;;;;;30.15;16.90;;;0.80;74.70;;;;;;6083204;23;117990;-86
2022/11/18 10:25:55;;;;;;;30.77;17.27;;;0.80;74.70;;;;;;6031075;23;114417;-86
2022/11/18 10:28:30;;;;;;;30.58;15.88;;;0.80;74.50;;;;;;6083733;23;115481;-86
2022/11/18 10:31:10;;;;;;;28.85;15.38;;;0.90;74.50;;;;;;6082660;23;118901;-86
2022/11/18 10:33:37;;;;;;;29.40;15.65;;;1.00;74.50;;;;;;6059726;23;117426;-85
2022/11/18 10:36:17;;;;;;;61.08;30.20;;;1.00;74.20;;;;;;6060008;23;115263;-86
2022/11/18 10:38:44;;;;;;;41.22;21.63;;;1.00;74.20;;;;;;6085423;23;114347;-85
2022/11/18 10:41:17;;;;;;;30.45;17.02;;;1.00;74.40;;;;;;6013001;23;118203;-84
2022/11/18 10:43:51;;;;;;;28.63;15.95;;;1.10;74.20;;;;;;6059589;23;114692;-86
2022/11/18 10:46:37;;;;;;;31.35;18.10;;;1.10;73.90;;;;;;6085496;23;114129;-85
2022/11/18 10:49:07;;;;;;;30.30;17.40;;;1.10;74.00;;;;;;6089696;23;114228;-86
2022/11/18 10:51:37;;;;;;;31.35;15.45;;;0.90;73.80;;;;;;6113770;23;114967;-86
2022/11/18 10:54:20;;;;;;;30.20;17.42;;;0.80;74.00;;;;;;6089381;23;114546;-87
2022/11/18 10:56:50;;;;;;;27.10;15.75;;;0.80;74.00;;;;;;6087971;23;114533;-86
2022/11/18 10:59:35;;;;;;;28.88;16.58;;;0.80;74.00;;;;;;6038251;23;114467;-85
2022/11/18 11:02:31;;;;;;;28.50;15.95;;;0.80;74.30;;;;;;6084352;23;115209;-86
2022/11/18 11:05:00;;;;;;;28.40;15.70;;;0.80;74.00;;;;;;6083595;23;114761;-86
2022/11/18 11:07:32;;;;;;;29.13;15.90;;;0.70;74.10;;;;;;6084426;23;114903;-84
2022/11/18 11:10:03;;;;;;;25.95;14.50;;;0.70;74.00;;;;;;6089012;23;114211;-85
2022/11/18 11:12:34;;;;;;;25.55;15.35;;;0.70;74.30;;;;;;6091697;23;115029;-85
2022/11/18 11:15:08;;;;;;;26.90;14.55;;;0.70;74.50;;;;;;6064493;23;117774;-85
2022/11/18 11:17:36;;;;;;;;;;;0.70;74.20;;;;;;6065624;23;114362;-86
2022/11/18 11:20:12;;;;;;;26.90;14.88;;;0.70;74.20;;;;;;6092595;23;114798;-86
2022/11/18 11:22:41;;;;;;;26.77;14.80;;;0.70;74.60;;;;;;6113566;23;115438;-86
2022/11/18 11:25:22;;;;;;;28.77;15.95;;;0.70;74.30;;;;;;6066105;23;116737;-85
2022/11/18 11:28:07;;;;;;;27.98;15.55;;;0.70;74.50;;;;;;6090212;23;114329;-86
2022/11/18 11:31:05;;;;;;;24.33;13.60;;;0.80;74.60;;;;;;6066422;23;114360;-86
2022/11/18 11:33:51;;;;;;;26.38;14.25;;;0.90;74.60;;;;;;6089030;23;115461;-85
2022/11/18 11:36:26;;;;;;;25.90;13.77;;;0.90;74.20;;;;;;6057632;23;116306;-83
2022/11/18 11:39:08;;;;;;;24.08;15.02;;;0.90;74.20;;;;;;6083395;23;114391;-83
2022/11/18 11:41:44;;;;;;;25.05;14.20;;;0.90;74.20;;;;;;6081863;23;114408;-83
2022/11/18 11:44:35;;;;;;;23.73;11.75;;;0.90;74.10;;;;;;6080336;23;114890;-83
2022/11/18 11:50:31;;;;;;;23.88;13.80;;;0.80;74.00;;;;;;6082609;23;114290;-84
2022/11/18 11:53:16;;;;;;;23.45;13.05;;;0.80;74.00;;;;;;6051202;23;114476;-84
2022/11/18 11:55:51;;;;;;;23.73;12.73;;;0.80;74.00;;;;;;6081675;23;115445;-84
2022/11/18 11:58:28;;;;;;;23.20;13.25;;;0.80;73.90;;;;;;6080458;23;114586;-83
2022/11/18 12:01:05;;;;;;;18.10;11.18;;;0.80;73.90;;;;;;6081801;23;114305;-84
2022/11/18 12:03:51;;;;;;;20.40;11.95;;;0.70;73.60;;;;;;6083850;23;114014;-82
2022/11/18 12:06:18;;;;;;;19.25;11.30;;;0.70;73.60;;;;;;6080604;23;114770;-83
2022/11/18 12:09:08;;;;;;;22.33;10.30;;;0.70;73.80;;;;;;6081727;23;114842;-83
2022/11/18 12:11:53;;;;;;;19.45;10.88;;;0.70;74.00;;;;;;6080212;23;114252;-82
2022/11/18 12:14:28;;;;;;;15.18;9.55;;;0.60;74.00;;;;;;6056006;23;114882;-83
2022/11/18 12:17:30;;;;;;;18.08;11.07;;;0.60;73.60;;;;;;6079122;23;116627;-83
2022/11/18 12:19:57;;;;;;;19.40;11.00;;;0.60;73.60;;;;;;6036648;23;114829;-82
2022/11/18 12:22:56;;;;;;;21.02;11.50;;;0.50;73.70;;;;;;6081866;23;114515;-83
2022/11/18 12:26:05;;;;;;;20.30;12.77;;;0.60;73.90;;;;;;6085305;23;114395;-82
2022/11/18 12:28:40;;;;;;;23.63;11.80;;;0.60;74.00;;;;;;6038967;23;114868;-82
2022/11/18 12:31:20;;;;;;;19.17;11.68;;;0.60;73.90;;;;;;6080604;23;114579;-82
2022/11/18 12:34:00;;;;;;;20.33;10.73;;;0.70;73.90;;;;;;6105688;23;114174;-81
2022/11/18 12:36:38;;;;;;;22.13;12.45;;;0.70;73.70;;;;;;6081422;23;114386;-81
2022/11/18 12:39:26;;;;;;;20.42;12.30;;;0.70;73.80;;;;;;6079754;23;114889;-82
2022/11/18 12:44:48;;;;;;;20.67;11.93;;;0.80;73.50;;;;;;6082994;23;114145;-82
2022/11/18 12:47:15;;;;;;;18.75;10.88;;;0.80;73.40;;;;;;6081419;23;115101;-83
2022/11/18 12:49:44;;;;;;;20.38;10.75;;;0.80;73.20;;;;;;6079813;23;115554;-82
2022/11/18 12:52:30;;;;;;;19.00;10.23;;;0.80;72.80;;;;;;6081739;23;114663;-82
2022/11/18 12:54:58;;;;;;;23.67;11.63;;;0.70;73.10;;;;;;6082649;23;114147;-83
2022/11/18 12:57:30;;;;;;;20.08;10.93;;;0.70;73.20;;;;;;6081728;23;114414;-82
2022/11/18 12:59:57;;;;;;;18.52;10.73;;;0.80;73.20;;;;;;6080369;23;115044;-83
2022/11/18 13:02:25;;;;;;;22.58;12.45;;;0.80;73.20;;;;;;6080273;23;114599;-81
2022/11/18 13:05:10;;;;;;;25.02;13.48;;;0.80;73.30;;;;;;6080896;23;115351;-81
2022/11/18 13:10:32;;;;;;;21.30;12.85;;;0.90;73.10;;;;;;6081128;23;114839;-81
2022/11/18 13:12:59;;;;;;;27.05;13.95;;;0.90;73.30;;;;;;6080603;23;114503;-81